Goldberry, Missouri
Current Conditions -  °F | °C
As of 5:21 AM on Thursday 18 Dec 2014 (Local Time) from KIRK Reporting Station
Light Snow Light Snow  
Wind Chill: 19°   Ceiling: 2700
Heat Index: 26°   Visibility: 1.7mi
Dew Point: 23°   Wind: 6mph
Humidity: 88%   Direction: 80°E
Pressure: 30.26"   Gusts: NA
Location:  39.9344°N, 92.7744°W
Report Text: KIRK 181121Z AUTO 08005KT 1 3/4SM -SN BR OVC027 M03/M05 A3026 RMK AO2 P0001 T10331050
Loading
Personal Weather Stations






























Interactive Weather Map New forecast layout! Learn more

10-Day Weather Forecast

Advertisements
Track Severe Weather on mobile